createdAt,value
2019-01-26T00:01:42.205Z,15.80
2019-01-26T00:04:10.049Z,15.83
2019-01-26T00:06:37.736Z,16.83
2019-01-26T00:09:08.441Z,15.67
2019-01-26T00:11:36.141Z,15.37
2019-01-26T00:14:03.958Z,17.23
2019-01-26T00:16:31.661Z,14.17
2019-01-26T00:18:59.349Z,20.47
2019-01-26T00:21:27.082Z,22.97
2019-01-26T00:23:54.806Z,15.17
2019-01-26T00:26:22.517Z,15.07
2019-01-26T00:28:50.276Z,17.57
2019-01-26T00:31:18.349Z,16.60
2019-01-26T00:33:46.325Z,17.10
2019-01-26T00:36:14.194Z,21.30
2019-01-26T00:38:41.931Z,18.77
2019-01-26T00:41:09.629Z,18.20
2019-01-26T00:43:37.342Z,20.70
2019-01-26T00:46:05.127Z,15.73
2019-01-26T00:48:32.856Z,17.37
2019-01-26T00:51:00.589Z,15.67
2019-01-26T00:53:28.385Z,17.50
2019-01-26T00:55:56.126Z,18.53
2019-01-26T00:58:23.996Z,16.57
2019-01-26T01:00:51.740Z,16.97
2019-01-26T01:03:19.561Z,15.60
2019-01-26T01:05:47.362Z,16.43
2019-01-26T01:08:15.049Z,20.33
2019-01-26T01:10:42.781Z,16.23
2019-01-26T01:13:10.510Z,15.77
2019-01-26T01:15:38.232Z,15.40
2019-01-26T01:18:06.042Z,16.97
2019-01-26T01:20:33.965Z,19.03
2019-01-26T01:23:01.627Z,19.17
2019-01-26T01:25:29.414Z,16.47
2019-01-26T01:27:57.145Z,14.83
2019-01-26T01:30:24.881Z,16.93
2019-01-26T01:32:52.707Z,17.17
2019-01-26T01:35:20.413Z,21.17
2019-01-26T01:37:48.227Z,18.97
2019-01-26T01:40:15.905Z,21.33
2019-01-26T01:42:43.592Z,17.43
2019-01-26T01:45:13.838Z,18.40
2019-01-26T01:47:41.604Z,17.60
2019-01-26T01:50:09.385Z,19.07
2019-01-26T01:52:37.135Z,17.60
2019-01-26T01:55:05.429Z,18.77
2019-01-26T01:57:33.118Z,19.93
2019-01-26T02:00:00.882Z,21.40
2019-01-26T02:02:28.805Z,18.57
2019-01-26T02:04:56.556Z,19.43
2019-01-26T02:07:24.261Z,18.43
2019-01-26T02:09:51.953Z,20.73
2019-01-26T02:12:19.662Z,19.40
2019-01-26T02:14:47.577Z,16.50
2019-01-26T02:17:15.273Z,17.43
2019-01-26T02:19:42.957Z,22.00
2019-01-26T02:22:10.688Z,20.07
2019-01-26T02:24:38.404Z,16.83
2019-01-26T02:27:06.093Z,16.37
2019-01-26T02:29:33.870Z,15.40
2019-01-26T02:32:01.661Z,18.60
2019-01-26T02:34:29.361Z,16.83
2019-01-26T02:36:57.289Z,17.43
2019-01-26T02:39:25.141Z,19.50
2019-01-26T02:41:52.877Z,17.20
2019-01-26T02:44:20.574Z,17.63
2019-01-26T02:46:48.289Z,18.00
2019-01-26T02:49:16.000Z,17.33
2019-01-26T02:51:43.885Z,19.37
2019-01-26T02:54:11.606Z,19.83
2019-01-26T02:56:39.426Z,16.17
2019-01-26T02:59:07.421Z,18.67
2019-01-26T03:01:35.294Z,20.03
2019-01-26T03:04:03.367Z,17.13
2019-01-26T03:06:31.241Z,16.70
2019-01-26T03:08:59.300Z,16.77
2019-01-26T03:11:27.025Z,16.00
2019-01-26T03:13:54.985Z,20.80
2019-01-26T03:16:22.931Z,17.63
2019-01-26T03:18:50.626Z,20.17
2019-01-26T03:21:18.402Z,21.77
2019-01-26T03:23:46.205Z,15.33
2019-01-26T03:26:13.922Z,19.47
2019-01-26T03:28:41.645Z,20.50
2019-01-26T03:31:09.538Z,18.67
2019-01-26T03:33:37.264Z,16.53
2019-01-26T03:36:04.953Z,17.47
2019-01-26T03:38:32.665Z,19.17
2019-01-26T03:41:00.363Z,16.73
2019-01-26T03:43:28.177Z,20.63
2019-01-26T03:45:55.915Z,24.35
2019-01-26T03:48:23.608Z,21.30
2019-01-26T03:50:51.331Z,17.80
2019-01-26T03:53:19.031Z,18.03
2019-01-26T03:55:46.748Z,18.10
2019-01-26T03:58:14.445Z,18.23
2019-01-26T04:00:42.202Z,16.47
2019-01-26T04:03:09.897Z,16.70
2019-01-26T04:05:37.676Z,19.20
2019-01-26T04:08:05.389Z,16.87
2019-01-26T04:10:33.113Z,18.80
2019-01-26T04:13:00.813Z,17.47
2019-01-26T04:15:28.526Z,17.37
2019-01-26T04:17:56.213Z,19.27
2019-01-26T04:20:23.925Z,18.07
2019-01-26T04:22:51.838Z,18.73
2019-01-26T04:25:19.541Z,18.50
2019-01-26T04:27:47.282Z,18.20
2019-01-26T04:30:19.210Z,19.53
2019-01-26T04:32:46.931Z,17.43
2019-01-26T04:35:14.665Z,17.93
2019-01-26T04:37:42.356Z,17.97
2019-01-26T04:40:12.149Z,18.17
2019-01-26T04:42:39.889Z,18.63
2019-01-26T04:45:10.477Z,18.53
2019-01-26T04:47:38.194Z,18.03
2019-01-26T04:50:06.941Z,21.03
2019-01-26T04:52:34.665Z,18.33
2019-01-26T04:55:02.376Z,18.73
2019-01-26T04:57:30.094Z,19.83
2019-01-26T04:59:57.773Z,24.60
2019-01-26T05:02:25.509Z,21.23
2019-01-26T05:04:53.196Z,24.37
2019-01-26T05:07:20.900Z,21.30
2019-01-26T05:09:48.618Z,29.03
2019-01-26T05:12:16.337Z,25.30
2019-01-26T05:14:44.049Z,26.70
2019-01-26T05:17:11.749Z,26.77
2019-01-26T05:19:39.463Z,22.67
2019-01-26T05:22:07.141Z,28.20
2019-01-26T05:24:34.848Z,25.97
2019-01-26T05:27:02.598Z,23.80
2019-01-26T05:29:30.301Z,22.57
2019-01-26T05:31:58.038Z,22.40
2019-01-26T05:34:25.736Z,24.57
2019-01-26T05:36:53.441Z,21.47
2019-01-26T05:39:21.164Z,25.03
2019-01-26T05:41:48.901Z,25.87
2019-01-26T05:44:16.697Z,27.13
2019-01-26T05:49:23.494Z,29.80
2019-01-26T05:51:51.205Z,23.00
2019-01-26T05:54:19.092Z,26.97
2019-01-26T05:56:46.733Z,24.63
2019-01-26T05:59:14.457Z,25.67
2019-01-26T06:01:42.173Z,22.73
2019-01-26T06:04:10.106Z,23.03
2019-01-26T06:06:37.820Z,24.17
2019-01-26T06:09:07.726Z,21.03
2019-01-26T06:11:35.452Z,25.20
2019-01-26T06:14:03.157Z,21.33
2019-01-26T06:16:30.901Z,20.93
2019-01-26T06:18:58.599Z,19.03
2019-01-26T06:21:26.303Z,23.83
2019-01-26T06:23:54.023Z,22.17
2019-01-26T06:26:41.117Z,19.63
2019-01-26T06:29:08.833Z,22.10
2019-01-26T06:31:36.766Z,30.77
2019-01-26T06:34:04.464Z,30.40
2019-01-26T06:36:32.419Z,24.27
2019-01-26T06:39:00.118Z,26.53
2019-01-26T06:41:27.953Z,22.17
2019-01-26T06:43:56.012Z,25.47
2019-01-26T06:46:23.732Z,32.87
2019-01-26T06:48:55.556Z,32.70
2019-01-26T06:51:23.333Z,33.13
2019-01-26T06:53:51.950Z,33.10
2019-01-26T06:56:19.653Z,28.63
2019-01-26T06:58:47.425Z,24.80
2019-01-26T07:01:15.105Z,25.53
2019-01-26T07:03:42.829Z,26.13
2019-01-26T07:06:20.128Z,23.53
2019-01-26T07:08:47.852Z,24.00
2019-01-26T07:11:15.585Z,21.50
2019-01-26T07:13:43.261Z,25.33
2019-01-26T07:16:11.385Z,28.00
2019-01-26T07:18:39.069Z,31.17
2019-01-26T07:21:06.798Z,35.00
2019-01-26T07:23:34.509Z,32.53
2019-01-26T07:26:02.213Z,31.90
2019-01-26T07:28:29.930Z,29.70
2019-01-26T07:30:57.738Z,28.23
2019-01-26T07:33:25.453Z,34.07
2019-01-26T07:35:53.255Z,34.13
2019-01-26T07:38:20.958Z,38.87
2019-01-26T07:40:48.734Z,35.40
2019-01-26T07:43:16.823Z,43.70
2019-01-26T07:45:44.728Z,39.77
2019-01-26T07:48:16.688Z,38.27
2019-01-26T07:50:41.897Z,35.37
2019-01-26T07:53:09.592Z,33.80
2019-01-26T07:55:37.341Z,37.70
2019-01-26T07:58:05.044Z,34.80
2019-01-26T08:00:32.761Z,38.60
2019-01-26T08:03:00.496Z,33.57
2019-01-26T08:05:28.209Z,35.37
2019-01-26T08:07:56.873Z,34.03
2019-01-26T08:10:24.677Z,30.93
2019-01-26T08:12:52.640Z,31.57
2019-01-26T08:15:22.994Z,35.30
2019-01-26T08:17:50.705Z,36.23
2019-01-26T08:20:18.927Z,33.07
2019-01-26T08:22:46.632Z,34.57
2019-01-26T08:25:14.643Z,31.37
2019-01-26T08:27:42.364Z,37.13
2019-01-26T08:30:13.281Z,39.77
2019-01-26T08:32:40.977Z,33.60
2019-01-26T08:35:08.935Z,40.00
2019-01-26T08:37:36.637Z,37.53
2019-01-26T08:40:04.521Z,38.93
2019-01-26T08:42:32.249Z,38.60
2019-01-26T08:45:00.012Z,39.00
2019-01-26T08:47:27.741Z,39.23
2019-01-26T08:49:55.493Z,35.10
2019-01-26T08:52:23.310Z,33.47
2019-01-26T08:54:50.976Z,33.77
2019-01-26T08:57:18.720Z,39.57
2019-01-26T08:59:46.457Z,44.42
2019-01-26T09:02:27.549Z,43.10
2019-01-26T09:04:56.374Z,37.10
2019-01-26T09:07:24.601Z,35.17
2019-01-26T09:09:52.337Z,34.70
2019-01-26T09:12:20.058Z,34.70
2019-01-26T09:14:47.776Z,39.67
2019-01-26T09:17:15.489Z,37.67
2019-01-26T09:19:43.195Z,44.63
2019-01-26T09:22:11.059Z,39.33
2019-01-26T09:24:38.763Z,39.60
2019-01-26T09:27:06.566Z,45.70
2019-01-26T09:29:34.268Z,47.67
2019-01-26T09:32:01.957Z,46.93
2019-01-26T09:34:29.717Z,45.53
2019-01-26T09:36:57.440Z,44.30
2019-01-26T09:39:25.693Z,46.30
2019-01-26T09:41:53.468Z,51.80
2019-01-26T09:44:21.180Z,45.90
2019-01-26T09:46:49.064Z,48.60
2019-01-26T09:49:16.801Z,48.93
2019-01-26T09:51:44.563Z,39.40
2019-01-26T09:54:12.273Z,51.98
2019-01-26T09:56:39.983Z,47.23
2019-01-26T09:59:07.700Z,43.50
2019-01-26T10:01:35.393Z,43.13
2019-01-26T10:04:03.215Z,35.10
2019-01-26T10:06:30.933Z,44.00
2019-01-26T10:08:58.638Z,38.43
2019-01-26T10:11:29.347Z,43.13
2019-01-26T10:13:58.502Z,46.60
2019-01-26T10:16:26.302Z,46.53
2019-01-26T10:18:54.210Z,44.47
2019-01-26T10:21:21.906Z,41.27
2019-01-26T10:23:49.621Z,43.67
2019-01-26T10:26:17.332Z,37.07
2019-01-26T10:28:45.052Z,35.93
2019-01-26T10:31:12.765Z,40.47
2019-01-26T10:33:40.464Z,42.53
2019-01-26T10:36:20.845Z,40.57
2019-01-26T10:38:52.549Z,41.47
2019-01-26T10:41:39.101Z,42.40
2019-01-26T10:44:07.521Z,39.43
2019-01-26T10:46:35.237Z,39.57
2019-01-26T10:49:03.005Z,38.87
2019-01-26T10:51:30.725Z,38.43
2019-01-26T10:53:58.516Z,44.27
2019-01-26T10:56:26.220Z,38.63
2019-01-26T10:58:53.937Z,36.13
2019-01-26T11:01:21.667Z,38.50
2019-01-26T11:04:08.793Z,40.23
2019-01-26T11:06:36.490Z,39.33
2019-01-26T11:09:07.709Z,35.47
2019-01-26T11:11:35.433Z,34.47
2019-01-26T11:14:03.141Z,35.63
2019-01-26T11:16:31.278Z,42.03
2019-01-26T11:18:59.033Z,39.33
2019-01-26T11:21:26.742Z,35.13
2019-01-26T11:23:54.452Z,40.53
2019-01-26T11:26:22.165Z,37.17
2019-01-26T11:28:49.874Z,40.10
2019-01-26T11:31:17.681Z,39.63
2019-01-26T11:33:45.405Z,42.77
2019-01-26T11:36:13.101Z,39.23
2019-01-26T11:38:40.813Z,40.50
2019-01-26T11:41:08.521Z,39.90
2019-01-26T11:43:36.260Z,44.90
2019-01-26T11:46:16.613Z,41.07
2019-01-26T11:48:46.469Z,46.55
2019-01-26T11:51:37.045Z,44.57
2019-01-26T11:54:04.768Z,41.30
2019-01-26T11:56:40.021Z,47.50
2019-01-26T11:59:07.871Z,48.23
2019-01-26T12:01:53.702Z,39.87
2019-01-26T12:04:53.155Z,43.17
2019-01-26T12:07:24.191Z,38.33
2019-01-26T12:09:51.905Z,46.70
2019-01-26T12:12:19.604Z,45.23
2019-01-26T12:14:47.414Z,51.53
2019-01-26T12:17:15.175Z,48.13
2019-01-26T12:19:42.861Z,48.23
2019-01-26T12:22:10.592Z,41.70
2019-01-26T12:24:38.365Z,34.27
2019-01-26T12:27:06.082Z,46.97
2019-01-26T12:29:33.841Z,41.33
2019-01-26T12:32:01.610Z,41.23
2019-01-26T12:34:29.312Z,38.23
2019-01-26T12:36:57.001Z,35.27
2019-01-26T12:39:24.711Z,28.53
2019-01-26T12:41:52.422Z,26.73
2019-01-26T12:44:20.109Z,28.07
2019-01-26T12:46:47.833Z,27.73
2019-01-26T12:49:15.586Z,27.50
2019-01-26T12:51:46.254Z,31.33
2019-01-26T12:54:14.001Z,31.23
2019-01-26T12:56:41.713Z,31.70
2019-01-26T12:59:09.433Z,29.17
2019-01-26T13:01:37.121Z,35.60
2019-01-26T13:04:05.177Z,27.73
2019-01-26T13:06:32.897Z,26.37
2019-01-26T13:09:00.745Z,22.13
2019-01-26T13:11:29.271Z,30.50
2019-01-26T13:13:57.010Z,44.13
2019-01-26T13:16:25.074Z,40.97
2019-01-26T13:18:52.817Z,33.90
2019-01-26T13:21:20.717Z,29.13
2019-01-26T13:23:48.453Z,29.00
2019-01-26T13:26:16.356Z,25.53
2019-01-26T13:28:44.073Z,23.67
2019-01-26T13:31:11.769Z,27.80
2019-01-26T13:33:39.489Z,25.20
2019-01-26T13:36:07.516Z,25.07
2019-01-26T13:38:35.243Z,22.53
2019-01-26T13:41:02.922Z,25.13
2019-01-26T13:43:30.637Z,27.93
2019-01-26T13:45:58.341Z,26.30
2019-01-26T13:48:26.193Z,20.63
2019-01-26T13:50:53.887Z,21.03
2019-01-26T13:53:21.793Z,23.60
2019-01-26T13:55:49.513Z,20.67
2019-01-26T13:58:17.568Z,18.47
2019-01-26T14:00:45.274Z,21.30
2019-01-26T14:03:12.976Z,24.10
2019-01-26T14:05:40.707Z,17.30
2019-01-26T14:08:08.725Z,17.37
2019-01-26T14:10:36.445Z,18.30
2019-01-26T14:13:04.533Z,13.57
2019-01-26T14:15:32.241Z,15.43
2019-01-26T14:17:59.954Z,14.57
2019-01-26T14:20:27.690Z,10.73
2019-01-26T14:22:55.384Z,11.43
2019-01-26T14:25:25.096Z,11.77
2019-01-26T14:27:52.841Z,10.27
2019-01-26T14:30:26.413Z,13.10
2019-01-26T14:32:54.145Z,12.33
2019-01-26T14:35:22.566Z,15.57
2019-01-26T14:37:50.685Z,15.97
2019-01-26T14:40:18.428Z,14.80
2019-01-26T14:42:46.153Z,15.63
2019-01-26T14:45:13.969Z,13.60
2019-01-26T14:47:41.846Z,14.77
2019-01-26T14:50:10.596Z,18.17
2019-01-26T14:52:38.301Z,15.13
2019-01-26T14:55:08.104Z,14.10
2019-01-26T14:57:35.834Z,15.63
2019-01-26T15:00:04.939Z,13.80
2019-01-26T15:02:33.069Z,14.47
2019-01-26T15:05:01.065Z,13.67
2019-01-26T15:07:28.916Z,14.37
2019-01-26T15:09:56.629Z,13.17
2019-01-26T15:12:29.980Z,12.60
2019-01-26T15:15:02.919Z,14.27
2019-01-26T15:17:38.183Z,12.77
2019-01-26T15:20:08.837Z,13.87
2019-01-26T15:22:36.920Z,16.47
2019-01-26T15:25:05.426Z,16.90
2019-01-26T15:27:33.132Z,18.33
2019-01-26T15:30:00.829Z,17.67
2019-01-26T15:32:28.524Z,15.47
2019-01-26T15:34:56.216Z,17.47
2019-01-26T15:37:23.936Z,16.33
2019-01-26T15:39:51.644Z,16.17
2019-01-26T15:42:19.352Z,15.00
2019-01-26T15:44:47.068Z,12.83
2019-01-26T15:47:14.824Z,14.97
2019-01-26T15:49:42.569Z,13.50
2019-01-26T15:52:10.333Z,13.53
2019-01-26T15:54:38.054Z,12.33
2019-01-26T15:57:05.757Z,13.20
2019-01-26T15:59:33.513Z,11.03
2019-01-26T16:02:01.214Z,16.27
2019-01-26T16:04:29.029Z,15.17
2019-01-26T16:06:56.808Z,20.33
2019-01-26T16:09:24.509Z,23.53
2019-01-26T16:11:52.225Z,20.97
2019-01-26T16:14:19.917Z,21.73
2019-01-26T16:16:47.609Z,20.83
2019-01-26T16:19:15.336Z,18.57
2019-01-26T16:21:43.030Z,15.77
2019-01-26T16:24:10.769Z,13.97
2019-01-26T16:26:38.480Z,17.43
2019-01-26T16:29:06.506Z,15.00
2019-01-26T16:31:34.312Z,16.90
2019-01-26T16:34:02.143Z,21.97
2019-01-26T16:36:29.899Z,20.20
2019-01-26T16:38:57.645Z,20.90
2019-01-26T16:41:25.470Z,19.70
2019-01-26T16:43:53.210Z,22.00
2019-01-26T16:46:20.933Z,20.93
2019-01-26T16:48:48.749Z,24.00
2019-01-26T16:51:16.522Z,19.87
2019-01-26T16:53:44.346Z,20.27
2019-01-26T16:56:12.544Z,22.87
2019-01-26T16:58:40.341Z,21.63
2019-01-26T17:01:08.353Z,24.67
2019-01-26T17:03:36.077Z,25.87
2019-01-26T17:06:04.064Z,21.00
2019-01-26T17:08:31.785Z,25.97
2019-01-26T17:10:59.540Z,21.37
2019-01-26T17:13:27.605Z,25.50
2019-01-26T17:15:55.309Z,27.93
2019-01-26T17:18:23.481Z,27.03
2019-01-26T17:20:51.615Z,29.57
2019-01-26T17:23:19.453Z,27.90
2019-01-26T17:25:47.165Z,31.17
2019-01-26T17:28:14.917Z,30.93
2019-01-26T17:30:42.989Z,30.77
2019-01-26T17:33:10.702Z,27.23
2019-01-26T17:35:38.393Z,29.53
2019-01-26T17:38:06.113Z,25.60
2019-01-26T17:40:33.845Z,29.53
2019-01-26T17:43:01.560Z,32.20
2019-01-26T17:45:29.260Z,28.37
2019-01-26T17:47:57.205Z,27.40
2019-01-26T17:50:25.023Z,27.83
2019-01-26T17:52:52.948Z,30.73
2019-01-26T17:55:20.829Z,34.83
2019-01-26T17:57:48.554Z,32.53
2019-01-26T18:00:26.165Z,37.97
2019-01-26T18:02:54.265Z,58.10
2019-01-26T18:05:21.979Z,37.67
2019-01-26T18:07:49.877Z,36.67
2019-01-26T18:10:18.597Z,36.43
2019-01-26T18:12:46.468Z,38.60
2019-01-26T18:15:14.282Z,76.87
2019-01-26T18:17:45.304Z,40.30
2019-01-26T18:20:59.281Z,44.40
2019-01-26T18:23:31.268Z,49.27
2019-01-26T18:26:02.090Z,48.93
2019-01-26T18:28:34.757Z,56.63
2019-01-26T18:31:03.757Z,48.70
2019-01-26T18:33:36.581Z,51.07
2019-01-26T18:36:05.125Z,56.77
2019-01-26T18:38:32.825Z,60.33
2019-01-26T18:41:00.533Z,51.97
2019-01-26T18:43:28.237Z,50.63
2019-01-26T18:45:55.935Z,40.87
2019-01-26T18:48:23.676Z,33.27
2019-01-26T18:50:56.062Z,30.80
2019-01-26T18:53:20.976Z,60.17
2019-01-26T18:55:48.661Z,57.53
2019-01-26T18:58:16.357Z,55.60
2019-01-26T19:00:46.886Z,74.97
2019-01-26T19:03:41.157Z,59.73
2019-01-26T19:06:09.137Z,58.03
2019-01-26T19:08:36.892Z,59.50
2019-01-26T19:11:04.590Z,55.93
2019-01-26T19:13:32.296Z,49.77
2019-01-26T19:16:00.218Z,53.30
2019-01-26T19:18:27.908Z,52.87
2019-01-26T19:20:55.646Z,55.17
2019-01-26T19:23:23.596Z,53.30
2019-01-26T19:25:51.297Z,49.83
2019-01-26T19:28:19.013Z,56.30
2019-01-26T19:30:46.717Z,67.07
2019-01-26T19:33:14.781Z,68.57
2019-01-26T19:35:42.464Z,73.17
2019-01-26T19:38:10.281Z,68.60
2019-01-26T19:40:38.017Z,71.00
2019-01-26T19:43:06.037Z,73.53
2019-01-26T19:45:33.760Z,74.10
2019-01-26T19:48:01.460Z,79.30
2019-01-26T19:50:29.167Z,76.10
2019-01-26T19:52:56.852Z,78.60
2019-01-26T19:55:24.592Z,74.60
2019-01-26T19:57:52.273Z,63.20
2019-01-26T20:00:20.005Z,69.23
2019-01-26T20:02:47.719Z,81.27
2019-01-26T20:05:16.895Z,84.90
2019-01-26T20:07:44.600Z,92.90
2019-01-26T20:10:12.558Z,93.57
2019-01-26T20:12:40.244Z,96.97
2019-01-26T20:15:12.901Z,93.20
2019-01-26T20:17:40.609Z,87.77
2019-01-26T20:20:10.833Z,71.10
2019-01-26T20:22:38.553Z,71.63
2019-01-26T20:25:06.486Z,65.23
2019-01-26T20:27:34.173Z,65.37
2019-01-26T20:30:01.894Z,68.60
2019-01-26T20:32:29.612Z,63.73
2019-01-26T20:34:57.385Z,51.57
2019-01-26T20:37:25.089Z,55.97
2019-01-26T20:39:52.794Z,60.90
2019-01-26T20:42:20.501Z,57.03
2019-01-26T20:44:48.193Z,60.67
2019-01-26T20:47:15.897Z,64.83
2019-01-26T20:49:43.629Z,61.87
2019-01-26T20:52:11.324Z,56.83
2019-01-26T20:54:39.038Z,53.93
2019-01-26T20:57:06.734Z,59.70
2019-01-26T20:59:34.470Z,66.10
2019-01-26T21:02:02.173Z,73.70
2019-01-26T21:04:29.888Z,72.23
2019-01-26T21:06:58.064Z,71.25
2019-01-26T21:09:25.821Z,69.27
2019-01-26T21:11:53.541Z,62.00
2019-01-26T21:14:21.238Z,78.50
2019-01-26T21:16:48.965Z,93.13
2019-01-26T21:19:16.573Z,88.67
2019-01-26T21:21:44.292Z,91.57
2019-01-26T21:24:12.021Z,89.03
2019-01-26T21:26:39.731Z,103.63
2019-01-26T21:29:07.462Z,87.57
2019-01-26T21:31:35.163Z,79.17
2019-01-26T21:34:02.961Z,78.77
2019-01-26T21:36:30.860Z,63.37
2019-01-26T21:39:01.246Z,72.93
2019-01-26T21:41:29.192Z,57.23
2019-01-26T21:43:57.120Z,45.30
2019-01-26T21:46:25.111Z,50.17
2019-01-26T21:48:53.060Z,55.33
2019-01-26T21:51:22.126Z,47.20
2019-01-26T21:53:49.875Z,45.07
2019-01-26T21:56:17.625Z,55.53
2019-01-26T21:58:45.372Z,50.40
2019-01-26T22:01:13.080Z,50.80
2019-01-26T22:03:40.857Z,51.93
2019-01-26T22:06:08.573Z,54.00
2019-01-26T22:08:36.325Z,47.40
2019-01-26T22:11:04.113Z,45.10
2019-01-26T22:13:31.884Z,48.33
2019-01-26T22:15:59.587Z,48.50
2019-01-26T22:18:27.338Z,45.90
2019-01-26T22:20:55.117Z,50.97
2019-01-26T22:23:22.936Z,54.90
2019-01-26T22:25:51.790Z,59.40
2019-01-26T22:28:19.541Z,56.67
2019-01-26T22:30:47.252Z,61.40
2019-01-26T22:33:14.993Z,62.00
2019-01-26T22:35:42.771Z,61.73
2019-01-26T22:38:10.521Z,60.37
2019-01-26T22:40:38.232Z,49.17
2019-01-26T22:43:05.931Z,42.53
2019-01-26T22:45:33.833Z,39.67
2019-01-26T22:48:01.526Z,33.53
2019-01-26T22:50:29.457Z,37.70
2019-01-26T22:52:57.201Z,40.43
2019-01-26T22:55:25.077Z,38.90
2019-01-26T22:57:52.886Z,43.20
2019-01-26T23:00:47.297Z,45.33
2019-01-26T23:03:15.263Z,43.27
2019-01-26T23:06:13.768Z,45.83
2019-01-26T23:08:41.519Z,46.07
2019-01-26T23:12:03.534Z,50.83
2019-01-26T23:15:08.689Z,42.47
2019-01-26T23:18:13.497Z,45.37
2019-01-26T23:21:14.157Z,43.10
2019-01-26T23:24:28.237Z,44.30
2019-01-26T23:27:46.825Z,41.87
2019-01-26T23:30:43.614Z,33.47
2019-01-26T23:33:11.345Z,37.00
2019-01-26T23:35:39.317Z,36.43
2019-01-26T23:38:07.042Z,36.03
2019-01-26T23:40:34.764Z,42.93
2019-01-26T23:43:02.501Z,42.90
2019-01-26T23:45:30.231Z,44.47
2019-01-26T23:47:57.980Z,43.23
2019-01-26T23:50:25.690Z,41.53
2019-01-26T23:52:53.417Z,45.90
2019-01-26T23:55:21.133Z,45.97
2019-01-26T23:57:48.922Z,38.50
